createdAt,value
2022-09-07T00:01:00.685Z,6.40
2022-09-07T00:03:29.006Z,5.43
2022-09-07T00:05:57.318Z,5.70
2022-09-07T00:08:27.944Z,5.30
2022-09-07T00:10:59.323Z,3.47
2022-09-07T00:13:29.530Z,5.70
2022-09-07T00:15:58.116Z,3.67
2022-09-07T00:18:27.013Z,6.05
2022-09-07T00:21:02.499Z,4.85
2022-09-07T00:23:31.568Z,6.03
2022-09-07T00:26:05.562Z,3.97
2022-09-07T00:28:34.130Z,4.78
2022-09-07T00:31:02.517Z,2.17
2022-09-07T00:33:31.108Z,4.15
2022-09-07T00:35:59.763Z,2.60
2022-09-07T00:38:57.906Z,2.35
2022-09-07T00:41:27.399Z,5.05
2022-09-07T00:43:57.716Z,8.90
2022-09-07T00:46:27.873Z,11.65
2022-09-07T00:49:08.154Z,5.03
2022-09-07T00:51:42.233Z,5.72
2022-09-07T00:54:13.882Z,9.52
2022-09-07T00:56:46.297Z,4.22
2022-09-07T00:59:17.605Z,2.58
2022-09-07T01:01:46.198Z,3.42
2022-09-07T01:04:16.259Z,3.38
2022-09-07T01:06:44.433Z,1.67
2022-09-07T01:09:15.828Z,3.50
2022-09-07T01:11:50.827Z,5.90
2022-09-07T01:14:21.986Z,2.58
2022-09-07T01:16:59.917Z,3.35
2022-09-07T01:19:50.335Z,2.65
2022-09-07T01:22:38.179Z,3.03
2022-09-07T01:25:11.424Z,1.88
2022-09-07T01:28:10.711Z,3.53
2022-09-07T01:30:40.722Z,1.83
2022-09-07T01:33:35.091Z,3.22
2022-09-07T01:36:15.819Z,3.65
2022-09-07T01:38:47.439Z,5.28
2022-09-07T01:41:19.818Z,2.63
2022-09-07T01:43:54.097Z,1.67
2022-09-07T01:46:27.984Z,3.15
2022-09-07T01:49:00.902Z,2.25
2022-09-07T01:51:33.005Z,2.33
2022-09-07T01:54:08.792Z,2.08
2022-09-07T01:56:40.021Z,1.52
2022-09-07T01:59:15.241Z,1.70
2022-09-07T02:01:50.118Z,1.52
2022-09-07T02:04:21.699Z,3.05
2022-09-07T02:06:54.810Z,2.35
2022-09-07T02:09:31.125Z,1.70
2022-09-07T02:12:03.332Z,3.13
2022-09-07T02:14:38.531Z,3.88
2022-09-07T02:17:13.510Z,2.30
2022-09-07T02:19:44.978Z,2.92
2022-09-07T02:22:19.619Z,3.25
2022-09-07T02:24:52.208Z,1.40
2022-09-07T02:27:26.026Z,2.45
2022-09-07T02:29:55.560Z,1.60
2022-09-07T02:32:23.682Z,2.60
2022-09-07T02:34:51.836Z,4.65
2022-09-07T02:37:21.527Z,2.85
2022-09-07T02:39:50.085Z,2.90
2022-09-07T02:42:18.138Z,4.68
2022-09-07T02:44:46.616Z,3.58
2022-09-07T02:47:26.409Z,2.35
2022-09-07T02:50:27.760Z,2.20
2022-09-07T02:53:09.328Z,1.25
2022-09-07T02:55:48.519Z,2.55
2022-09-07T02:58:29.985Z,3.67
2022-09-07T03:01:08.287Z,2.58
2022-09-07T03:03:46.716Z,3.75
2022-09-07T03:06:23.284Z,4.72
2022-09-07T03:08:55.821Z,1.58
2022-09-07T03:11:24.208Z,2.35
2022-09-07T03:13:52.361Z,3.55
2022-09-07T03:16:20.489Z,2.55
2022-09-07T03:18:50.705Z,1.77
2022-09-07T03:21:18.752Z,3.50
2022-09-07T03:23:51.153Z,1.65
2022-09-07T03:26:24.846Z,3.10
2022-09-07T03:28:53.019Z,2.05
2022-09-07T03:31:21.357Z,2.10
2022-09-07T03:33:50.854Z,1.75
2022-09-07T03:36:18.863Z,1.80
2022-09-07T03:38:47.015Z,2.28
2022-09-07T03:41:15.070Z,6.63
2022-09-07T03:43:43.162Z,1.40
2022-09-07T03:46:11.593Z,2.42
2022-09-07T03:48:39.864Z,2.28
2022-09-07T03:51:11.240Z,2.05
2022-09-07T03:53:41.473Z,2.15
2022-09-07T03:56:11.381Z,2.47
2022-09-07T03:58:39.705Z,3.58
2022-09-07T04:01:10.066Z,2.10
2022-09-07T04:03:39.420Z,5.13
2022-09-07T04:06:09.800Z,3.72
2022-09-07T04:08:40.165Z,1.92
2022-09-07T04:11:10.330Z,1.92
2022-09-07T04:13:38.476Z,6.28
2022-09-07T04:16:15.073Z,2.55
2022-09-07T04:18:43.209Z,8.73
2022-09-07T04:21:13.162Z,6.93
2022-09-07T04:23:42.113Z,11.80
2022-09-07T04:26:15.661Z,19.30
2022-09-07T04:28:43.997Z,11.75
2022-09-07T04:31:12.448Z,8.98
2022-09-07T04:33:41.592Z,9.30
2022-09-07T04:36:10.299Z,6.78
2022-09-07T04:38:40.906Z,6.95
2022-09-07T04:41:11.174Z,3.90
2022-09-07T04:43:40.558Z,3.80
2022-09-07T04:46:12.075Z,4.95
2022-09-07T04:48:40.221Z,4.55
2022-09-07T04:51:10.773Z,6.57
2022-09-07T04:53:40.167Z,14.77
2022-09-07T04:56:08.380Z,13.05
2022-09-07T04:58:37.153Z,15.98
2022-09-07T05:01:06.718Z,22.67
2022-09-07T05:03:37.111Z,9.48
2022-09-07T05:06:06.570Z,19.02
2022-09-07T05:08:37.700Z,14.82
2022-09-07T05:11:07.425Z,24.70
2022-09-07T05:13:35.516Z,13.43
2022-09-07T05:16:09.903Z,14.90
2022-09-07T05:18:38.158Z,8.38
2022-09-07T05:21:11.090Z,10.48
2022-09-07T05:23:39.867Z,9.00
2022-09-07T05:26:10.766Z,9.50
2022-09-07T05:28:39.512Z,7.93
2022-09-07T05:36:35.268Z,8.13
2022-09-07T05:39:03.529Z,6.57
2022-09-07T05:41:32.953Z,5.93
2022-09-07T05:46:49.124Z,4.75
2022-09-07T05:49:17.174Z,6.00
2022-09-07T05:51:45.231Z,5.85
2022-09-07T05:54:13.349Z,5.45
2022-09-07T05:56:42.848Z,3.45
2022-09-07T05:59:11.053Z,3.63
2022-09-07T06:01:39.251Z,2.63
2022-09-07T06:04:07.360Z,3.72
2022-09-07T06:06:39.396Z,3.63
2022-09-07T06:09:09.095Z,3.53
2022-09-07T06:11:37.843Z,3.60
2022-09-07T06:14:07.256Z,6.18
2022-09-07T06:16:35.852Z,5.72
2022-09-07T06:19:06.575Z,3.17
2022-09-07T06:21:37.728Z,3.63
2022-09-07T06:24:06.505Z,2.53
2022-09-07T06:26:34.838Z,2.33
2022-09-07T06:29:04.090Z,2.97
2022-09-07T06:31:34.458Z,3.17
2022-09-07T06:34:02.710Z,4.60
2022-09-07T06:36:31.139Z,2.60
2022-09-07T06:39:27.211Z,2.42
2022-09-07T06:44:31.068Z,3.28
2022-09-07T06:49:33.710Z,2.58
2022-09-07T06:52:12.635Z,1.92
2022-09-07T06:55:03.638Z,1.67
2022-09-07T06:57:35.507Z,3.50
2022-09-07T07:00:07.926Z,2.83
2022-09-07T07:02:45.102Z,4.70
2022-09-07T07:05:17.730Z,4.28
2022-09-07T07:07:47.469Z,3.58
2022-09-07T07:10:20.898Z,2.78
2022-09-07T07:12:53.122Z,2.40
2022-09-07T07:15:21.279Z,2.47
2022-09-07T07:17:58.226Z,2.35
2022-09-07T07:20:28.706Z,2.38
2022-09-07T07:22:56.925Z,2.95
2022-09-07T07:25:25.114Z,2.38
2022-09-07T07:27:53.163Z,5.22
2022-09-07T07:30:21.560Z,1.90
2022-09-07T07:32:50.932Z,1.90
2022-09-07T07:35:18.976Z,2.45
2022-09-07T07:37:48.038Z,3.67
2022-09-07T07:40:17.923Z,3.20
2022-09-07T07:42:48.643Z,3.28
2022-09-07T07:48:06.625Z,3.00
2022-09-07T07:50:34.853Z,2.22
2022-09-07T07:55:51.409Z,2.22
2022-09-07T07:58:19.819Z,2.00
2022-09-07T08:00:54.673Z,3.88
2022-09-07T08:03:25.954Z,4.03
2022-09-07T08:05:54.565Z,4.13
2022-09-07T08:08:24.300Z,2.25
2022-09-07T08:10:52.908Z,2.20
2022-09-07T08:13:21.267Z,2.15
2022-09-07T08:15:49.377Z,5.25
2022-09-07T08:18:18.492Z,2.55
2022-09-07T08:20:48.382Z,2.03
2022-09-07T08:23:16.372Z,1.75
2022-09-07T08:25:54.685Z,2.28
2022-09-07T08:28:23.431Z,1.85
2022-09-07T08:30:51.479Z,2.92
2022-09-07T08:33:19.625Z,0.90
2022-09-07T08:36:00.391Z,4.45
2022-09-07T08:38:29.933Z,1.55
2022-09-07T08:40:58.607Z,1.90
2022-09-07T08:43:34.496Z,3.83
2022-09-07T08:46:08.277Z,3.08
2022-09-07T08:48:36.484Z,1.42
2022-09-07T08:51:12.828Z,1.38
2022-09-07T08:53:46.451Z,2.45
2022-09-07T08:56:19.759Z,1.95
2022-09-07T08:58:50.396Z,2.90
2022-09-07T09:01:35.983Z,2.33
2022-09-07T09:04:22.493Z,1.42
2022-09-07T09:07:06.658Z,2.05
2022-09-07T09:09:58.081Z,1.45
2022-09-07T09:12:37.521Z,2.15
2022-09-07T09:15:17.507Z,2.55
2022-09-07T09:17:52.010Z,3.67
2022-09-07T09:20:25.946Z,3.83
2022-09-07T09:23:01.889Z,3.10
2022-09-07T09:25:34.568Z,1.88
2022-09-07T09:28:03.060Z,1.80
2022-09-07T09:30:31.472Z,2.08
2022-09-07T09:33:15.486Z,1.70
2022-09-07T09:35:45.696Z,1.80
2022-09-07T09:38:39.488Z,2.03
2022-09-07T09:41:09.477Z,1.27
2022-09-07T09:43:42.311Z,2.38
2022-09-07T09:46:23.665Z,3.55
2022-09-07T09:48:56.890Z,2.17
2022-09-07T09:54:25.270Z,2.47
2022-09-07T09:56:53.415Z,3.53
2022-09-07T10:05:29.537Z,1.20
2022-09-07T10:07:58.053Z,1.77
2022-09-07T10:10:29.457Z,5.18
2022-09-07T10:12:58.089Z,1.73
2022-09-07T10:15:40.063Z,3.90
2022-09-07T10:18:17.049Z,1.90
2022-09-07T10:20:45.131Z,1.90
2022-09-07T10:23:22.318Z,1.58
2022-09-07T10:25:51.848Z,2.00
2022-09-07T10:28:21.805Z,2.15
2022-09-07T10:31:04.447Z,1.95
2022-09-07T10:34:25.641Z,1.58
2022-09-07T10:36:41.847Z,1.95
2022-09-07T10:39:17.220Z,1.77
2022-09-07T10:41:50.723Z,3.38
2022-09-07T10:44:24.905Z,1.50
2022-09-07T10:47:00.975Z,1.92
2022-09-07T10:49:37.272Z,2.17
2022-09-07T10:52:14.221Z,1.75
2022-09-07T10:54:51.700Z,2.80
2022-09-07T10:57:42.139Z,2.05
2022-09-07T11:00:14.381Z,1.67
2022-09-07T11:03:25.781Z,2.40
2022-09-07T11:06:16.801Z,2.88
2022-09-07T11:09:18.692Z,2.60
2022-09-07T11:12:01.498Z,4.75
2022-09-07T11:14:36.062Z,2.78
2022-09-07T11:17:08.655Z,2.33
2022-09-07T11:19:44.858Z,2.47
2022-09-07T11:22:20.960Z,1.52
2022-09-07T11:27:48.372Z,2.55
2022-09-07T11:30:23.529Z,2.55
2022-09-07T11:33:00.674Z,2.67
2022-09-07T11:35:36.122Z,2.42
2022-09-07T11:38:14.286Z,5.00
2022-09-07T11:40:59.630Z,2.50
2022-09-07T11:43:31.353Z,2.72
2022-09-07T11:46:05.580Z,2.80
2022-09-07T11:48:37.628Z,3.13
2022-09-07T11:51:11.614Z,1.60
2022-09-07T11:53:45.364Z,2.95
2022-09-07T11:56:18.450Z,1.95
2022-09-07T11:59:09.033Z,2.05
2022-09-07T12:01:48.231Z,3.00
2022-09-07T12:04:29.420Z,2.20
2022-09-07T12:07:27.720Z,5.28
2022-09-07T12:10:11.232Z,5.88
2022-09-07T12:12:56.558Z,2.88
2022-09-07T12:15:33.948Z,1.52
2022-09-07T12:18:27.633Z,1.63
2022-09-07T12:20:56.050Z,3.28
2022-09-07T12:23:30.060Z,1.50
2022-09-07T12:26:35.435Z,2.35
2022-09-07T12:29:23.631Z,3.15
2022-09-07T12:32:52.732Z,2.08
2022-09-07T12:35:03.014Z,1.70
2022-09-07T12:37:39.323Z,2.08
2022-09-07T12:40:45.019Z,4.40
2022-09-07T12:43:36.134Z,3.03
2022-09-07T12:46:04.660Z,2.70
2022-09-07T12:48:46.682Z,1.20
2022-09-07T12:54:25.498Z,1.90
2022-09-07T13:00:00.487Z,2.63
2022-09-07T13:02:41.756Z,1.83
2022-09-07T13:05:20.440Z,3.13
2022-09-07T13:08:16.449Z,2.47
2022-09-07T13:10:46.403Z,1.60
2022-09-07T13:14:02.710Z,6.65
2022-09-07T13:16:32.530Z,2.67
2022-09-07T13:19:53.690Z,1.10
2022-09-07T13:22:57.861Z,2.65
2022-09-07T13:25:48.880Z,1.65
2022-09-07T13:28:26.496Z,2.03
2022-09-07T13:31:08.225Z,1.35
2022-09-07T13:33:52.499Z,1.98
2022-09-07T13:36:30.617Z,1.63
2022-09-07T13:39:00.382Z,3.45
2022-09-07T13:41:34.854Z,5.90
2022-09-07T13:44:05.845Z,5.18
2022-09-07T13:46:50.081Z,2.00
2022-09-07T13:49:33.930Z,4.57
2022-09-07T13:52:08.305Z,1.30
2022-09-07T13:55:04.453Z,3.90
2022-09-07T13:57:40.340Z,1.88
2022-09-07T14:00:15.302Z,2.58
2022-09-07T14:02:43.651Z,3.20
2022-09-07T14:05:18.020Z,2.05
2022-09-07T14:07:46.994Z,3.08
2022-09-07T14:10:19.596Z,2.65
2022-09-07T14:12:50.546Z,2.50
2022-09-07T14:15:22.816Z,2.22
2022-09-07T14:18:00.957Z,1.63
2022-09-07T14:20:29.450Z,1.83
2022-09-07T14:22:58.280Z,1.55
2022-09-07T14:25:27.984Z,2.88
2022-09-07T14:27:57.726Z,2.55
2022-09-07T14:30:29.024Z,1.42
2022-09-07T14:33:00.826Z,1.73
2022-09-07T14:35:33.979Z,6.28
2022-09-07T14:38:07.861Z,4.63
2022-09-07T14:40:37.571Z,1.75
2022-09-07T14:43:26.873Z,1.60
2022-09-07T14:45:55.215Z,1.80
2022-09-07T14:48:31.428Z,1.48
2022-09-07T14:51:19.372Z,1.55
2022-09-07T14:53:50.761Z,2.35
2022-09-07T14:56:23.088Z,4.03
2022-09-07T14:58:52.729Z,2.63
2022-09-07T15:01:38.347Z,2.25
2022-09-07T15:04:18.946Z,1.65
2022-09-07T15:07:02.969Z,3.28
2022-09-07T15:09:37.053Z,4.70
2022-09-07T15:12:18.279Z,1.20
2022-09-07T15:14:47.570Z,2.53
2022-09-07T15:17:47.122Z,1.88
2022-09-07T15:20:44.044Z,1.70
2022-09-07T15:23:13.701Z,2.25
2022-09-07T15:25:45.387Z,2.05
2022-09-07T15:34:03.583Z,1.80
2022-09-07T15:36:32.345Z,1.42
2022-09-07T15:39:01.093Z,2.72
2022-09-07T15:41:29.575Z,1.73
2022-09-07T15:43:59.780Z,2.92
2022-09-07T15:46:28.148Z,1.70
2022-09-07T15:48:57.191Z,2.55
2022-09-07T15:54:15.106Z,1.80
2022-09-07T15:56:44.438Z,1.90
2022-09-07T15:59:33.068Z,2.95
2022-09-07T16:02:03.003Z,1.70
2022-09-07T16:04:31.468Z,2.50
2022-09-07T16:07:01.655Z,1.17
2022-09-07T16:09:29.958Z,2.15
2022-09-07T16:13:00.029Z,1.52
2022-09-07T16:14:47.601Z,2.97
2022-09-07T16:20:04.711Z,2.45
2022-09-07T16:25:20.956Z,2.97
2022-09-07T16:27:49.929Z,2.00
2022-09-07T16:30:19.771Z,1.58
2022-09-07T16:32:48.007Z,2.00
2022-09-07T16:35:16.182Z,1.52
2022-09-07T16:40:32.541Z,1.60
2022-09-07T16:43:01.117Z,1.75
2022-09-07T16:48:18.574Z,1.92
2022-09-07T16:51:00.272Z,1.90
2022-09-07T16:53:29.865Z,3.58
2022-09-07T16:56:01.866Z,4.22
2022-09-07T16:58:38.480Z,1.42
2022-09-07T17:01:09.871Z,1.50
2022-09-07T17:03:39.122Z,1.88
2022-09-07T17:06:09.687Z,3.80
2022-09-07T17:08:38.846Z,1.50
2022-09-07T17:11:08.642Z,1.35
2022-09-07T17:13:38.131Z,2.50
2022-09-07T17:16:10.584Z,2.25
2022-09-07T17:21:30.184Z,3.45
2022-09-07T17:23:58.230Z,1.98
2022-09-07T17:26:27.426Z,1.52
2022-09-07T17:29:00.184Z,1.85
2022-09-07T17:34:20.641Z,3.88
2022-09-07T17:36:48.812Z,0.82
2022-09-07T17:39:18.765Z,1.77
2022-09-07T17:41:47.586Z,2.65
2022-09-07T17:44:15.896Z,1.10
2022-09-07T17:46:45.263Z,3.05
2022-09-07T17:49:16.076Z,1.60
2022-09-07T17:51:45.229Z,1.52
2022-09-07T17:54:15.662Z,1.70
2022-09-07T17:56:44.235Z,1.42
2022-09-07T18:02:02.014Z,2.28
2022-09-07T18:04:30.228Z,1.45
2022-09-07T18:06:58.381Z,2.97
2022-09-07T18:09:26.425Z,2.72
2022-09-07T18:11:54.495Z,2.47
2022-09-07T18:14:22.567Z,2.90
2022-09-07T18:16:51.208Z,2.05
2022-09-07T18:19:20.785Z,4.95
2022-09-07T18:21:50.577Z,1.42
2022-09-07T18:24:21.923Z,2.45
2022-09-07T18:26:52.538Z,2.67
2022-09-07T18:29:33.454Z,1.70
2022-09-07T18:32:08.190Z,2.85
2022-09-07T18:34:41.154Z,2.13
2022-09-07T18:37:11.956Z,2.25
2022-09-07T18:39:40.709Z,2.45
2022-09-07T18:42:09.394Z,2.53
2022-09-07T18:47:29.809Z,3.42
2022-09-07T18:49:59.499Z,2.53
2022-09-07T18:55:16.938Z,1.27
2022-09-07T18:57:45.058Z,1.58
2022-09-07T19:00:14.197Z,5.75
2022-09-07T19:02:42.865Z,1.73
2022-09-07T19:08:03.212Z,1.50
2022-09-07T19:10:33.880Z,7.22
2022-09-07T19:13:01.973Z,1.23
2022-09-07T19:15:31.607Z,1.35
2022-09-07T19:18:04.526Z,2.78
2022-09-07T19:20:34.866Z,1.52
2022-09-07T19:23:03.156Z,1.27
2022-09-07T19:25:31.180Z,1.23
2022-09-07T19:27:59.371Z,2.33
2022-09-07T19:30:27.864Z,3.40
2022-09-07T19:32:57.106Z,3.35
2022-09-07T19:35:26.663Z,1.65
2022-09-07T19:37:55.993Z,1.52
2022-09-07T19:40:24.038Z,3.53
2022-09-07T19:42:52.147Z,1.65
2022-09-07T19:45:20.149Z,3.83
2022-09-07T19:47:50.484Z,1.27
2022-09-07T19:50:22.032Z,1.42
2022-09-07T19:52:50.474Z,1.75
2022-09-07T19:55:19.977Z,1.80
2022-09-07T19:57:50.530Z,1.27
2022-09-07T20:00:19.222Z,1.42
2022-09-07T20:02:49.190Z,3.03
2022-09-07T20:05:17.509Z,1.70
2022-09-07T20:07:45.624Z,2.78
2022-09-07T20:10:13.763Z,2.83
2022-09-07T20:12:43.114Z,2.03
2022-09-07T20:15:11.177Z,1.80
2022-09-07T20:17:39.251Z,2.45
2022-09-07T20:20:08.320Z,4.07
2022-09-07T20:22:36.370Z,1.83
2022-09-07T20:25:04.866Z,2.42
2022-09-07T20:27:35.683Z,1.92
2022-09-07T20:30:05.848Z,2.60
2022-09-07T20:32:34.965Z,2.50
2022-09-07T20:35:03.076Z,1.88
2022-09-07T20:37:31.176Z,3.63
2022-09-07T20:39:59.398Z,3.28
2022-09-07T20:42:27.443Z,2.00
2022-09-07T20:44:55.636Z,2.65
2022-09-07T20:47:25.028Z,1.90
2022-09-07T20:49:53.349Z,1.40
2022-09-07T20:52:21.484Z,3.10
2022-09-07T20:54:49.445Z,2.58
2022-09-07T20:57:17.618Z,2.15
2022-09-07T20:59:45.650Z,3.30
2022-09-07T21:02:13.663Z,1.90
2022-09-07T21:04:43.320Z,2.00
2022-09-07T21:07:11.453Z,2.53
2022-09-07T21:09:39.438Z,3.85
2022-09-07T21:12:07.702Z,1.73
2022-09-07T21:14:35.724Z,1.88
2022-09-07T21:17:03.743Z,2.63
2022-09-07T21:19:31.724Z,2.08
2022-09-07T21:22:01.149Z,3.30
2022-09-07T21:24:29.157Z,1.70
2022-09-07T21:26:57.265Z,3.78
2022-09-07T21:29:26.553Z,3.00
2022-09-07T21:31:55.112Z,4.32
2022-09-07T21:34:23.752Z,2.53
2022-09-07T21:36:52.435Z,3.33
2022-09-07T21:39:22.000Z,11.15
2022-09-07T21:41:50.197Z,3.70
2022-09-07T21:44:18.403Z,3.55
2022-09-07T21:46:47.118Z,3.60
2022-09-07T21:49:15.198Z,3.22
2022-09-07T21:51:43.208Z,5.82
2022-09-07T21:54:11.293Z,2.85
2022-09-07T21:56:45.849Z,3.53
2022-09-07T21:59:14.791Z,3.05
2022-09-07T22:01:42.888Z,6.97
2022-09-07T22:04:10.962Z,3.20
2022-09-07T22:06:39.803Z,2.28
2022-09-07T22:09:07.965Z,3.70
2022-09-07T22:11:36.114Z,5.50
2022-09-07T22:14:06.808Z,3.42
2022-09-07T22:16:35.721Z,3.80
2022-09-07T22:19:04.620Z,6.10
2022-09-07T22:21:33.122Z,3.35
2022-09-07T22:24:03.404Z,4.75
2022-09-07T22:26:33.474Z,3.58
2022-09-07T22:29:01.552Z,3.63
2022-09-07T22:31:32.619Z,2.67
2022-09-07T22:34:02.247Z,4.65
2022-09-07T22:36:32.652Z,4.35
2022-09-07T22:39:03.600Z,4.07
2022-09-07T22:41:33.995Z,3.90
2022-09-07T22:44:02.130Z,4.20
2022-09-07T22:46:35.435Z,3.83
2022-09-07T22:49:03.934Z,3.70
2022-09-07T22:51:32.026Z,4.82
2022-09-07T22:54:00.125Z,3.83
2022-09-07T22:56:31.025Z,5.82
2022-09-07T22:59:01.000Z,4.40
2022-09-07T23:01:31.861Z,4.20
2022-09-07T23:04:00.743Z,5.63
2022-09-07T23:06:30.507Z,3.30
2022-09-07T23:09:00.399Z,3.67
2022-09-07T23:11:29.544Z,3.15
2022-09-07T23:13:58.942Z,6.68
2022-09-07T23:16:28.714Z,4.88
2022-09-07T23:18:59.330Z,3.65
2022-09-07T23:21:28.141Z,4.63
2022-09-07T23:23:58.522Z,3.35
2022-09-07T23:26:28.237Z,3.88
2022-09-07T23:28:58.189Z,5.28
2022-09-07T23:31:27.565Z,4.22
2022-09-07T23:33:58.304Z,4.15
2022-09-07T23:36:26.488Z,3.90
2022-09-07T23:38:56.090Z,4.13
2022-09-07T23:41:25.179Z,3.10
2022-09-07T23:43:53.517Z,3.25
2022-09-07T23:46:21.887Z,3.60
2022-09-07T23:48:50.828Z,4.03
2022-09-07T23:51:24.262Z,4.38
2022-09-07T23:53:53.351Z,3.70
2022-09-07T23:56:21.768Z,5.03
2022-09-07T23:58:49.966Z,2.95
